Time;durP1;ratioP1;P1;durP2;ratioP2;P2;SDS_P1;SDS_P2;PMS_P1;PMS_P2;Temp;Humidity;BMP_temperature;BMP_pressure;BME280_temperature;BME280_humidity;BME280_pressure;Samples;Min_cycle;Max_cycle;Signal;HPM_P1;HPM_P2
2022/03/22 00:02:09;;;;;;;8.93;5.82;;;;;;;;;;5092987;28;20460;-63
2022/03/22 00:04:34;;;;;;;7.40;5.45;;;;;;;;;;5101360;28;20023;-63
2022/03/22 00:07:00;;;;;;;7.72;5.13;;;;;;;;;;5110896;28;20016;-62
2022/03/22 00:09:25;;;;;;;8.40;5.80;;;;;;;;;;5094340;28;20049;-62
2022/03/22 00:11:50;;;;;;;7.10;4.93;;;;;;;;;;5092758;28;20027;-62
2022/03/22 00:14:16;;;;;;;9.52;5.28;;;;;;;;;;5110629;28;20045;-63
2022/03/22 00:16:41;;;;;;;7.93;4.75;;;;;;;;;;5112387;28;20019;-63
2022/03/22 00:19:06;;;;;;;8.15;5.13;;;;;;;;;;5110585;28;20019;-62
2022/03/22 00:21:32;;;;;;;7.60;5.28;;;;;;;;;;5112368;28;20015;-62
2022/03/22 00:23:57;;;;;;;7.78;5.22;;;;;;;;;;5113005;28;20072;-62
2022/03/22 00:26:22;;;;;;;8.65;5.00;;;;;;;;;;5108792;28;20080;-63
2022/03/22 00:28:48;;;;;;;6.47;5.03;;;;;;;;;;5100934;28;20043;-62
2022/03/22 00:31:13;;;;;;;6.93;4.97;;;;;;;;;;5098384;28;20016;-63
2022/03/22 00:33:38;;;;;;;9.07;4.93;;;;;;;;;;5109261;28;20032;-62
2022/03/22 00:36:04;;;;;;;8.13;5.65;;;;;;;;;;5112094;28;20032;-61
2022/03/22 00:38:29;;;;;;;7.55;4.68;;;;;;;;;;5103601;28;20473;-61
2022/03/22 00:40:54;;;;;;;8.82;5.18;;;;;;;;;;5095194;28;20073;-62
2022/03/22 00:43:20;;;;;;;7.60;5.18;;;;;;;;;;5112041;28;20055;-61
2022/03/22 00:45:47;;;;;;;9.38;5.15;;;;;;;;;;5098878;28;20028;-62
2022/03/22 00:48:13;;;;;;;7.95;4.70;;;;;;;;;;5109915;28;20479;-62
2022/03/22 00:50:40;;;;;;;8.13;4.75;;;;;;;;;;5111890;28;20030;-62
2022/03/22 00:53:07;;;;;;;12.07;5.53;;;;;;;;;;5093851;28;20066;-62
2022/03/22 00:55:33;;;;;;;6.77;4.97;;;;;;;;;;5093044;28;20804;-62
2022/03/22 00:57:58;;;;;;;6.88;4.97;;;;;;;;;;5102769;28;20046;-62
2022/03/22 01:00:25;;;;;;;8.47;5.00;;;;;;;;;;5102016;28;20028;-63
2022/03/22 01:02:51;;;;;;;6.93;4.83;;;;;;;;;;5093107;28;20468;-62
2022/03/22 01:05:20;;;;;;;7.47;4.77;;;;;;;;;;5095890;28;20031;-62
2022/03/22 01:07:46;;;;;;;6.73;4.77;;;;;;;;;;5093126;28;20097;-63
2022/03/22 01:10:12;;;;;;;9.57;5.63;;;;;;;;;;5107959;28;20035;-61
2022/03/22 01:12:38;;;;;;;8.67;5.83;;;;;;;;;;5110579;28;20072;-61
2022/03/22 01:15:05;;;;;;;8.80;5.97;;;;;;;;;;5104072;28;20024;-62
2022/03/22 01:17:31;;;;;;;7.67;5.23;;;;;;;;;;5101822;28;20118;-62
2022/03/22 01:19:57;;;;;;;9.17;6.10;;;;;;;;;;5091573;28;20028;-62
2022/03/22 01:22:22;;;;;;;7.93;5.80;;;;;;;;;;5101992;28;20107;-61
2022/03/22 01:24:48;;;;;;;9.37;5.17;;;;;;;;;;5109444;28;20365;-62
2022/03/22 01:27:13;;;;;;;11.03;5.47;;;;;;;;;;5107135;28;20399;-61
2022/03/22 01:29:38;;;;;;;7.93;5.40;;;;;;;;;;5104862;27;20468;-62
2022/03/22 01:32:05;;;;;;;7.03;5.10;;;;;;;;;;5116162;28;20028;-62
2022/03/22 01:34:30;;;;;;;10.67;5.53;;;;;;;;;;5110867;28;20023;-62
2022/03/22 01:36:55;;;;;;;7.40;5.60;;;;;;;;;;5097573;28;20032;-62
2022/03/22 01:39:20;;;;;;;6.37;4.87;;;;;;;;;;5105468;28;20100;-62
2022/03/22 01:41:46;;;;;;;8.57;5.50;;;;;;;;;;5116159;28;20157;-62
2022/03/22 01:44:11;;;;;;;6.43;5.63;;;;;;;;;;5102399;28;20110;-62
2022/03/22 01:46:37;;;;;;;9.93;5.90;;;;;;;;;;5115477;28;20027;-61
2022/03/22 01:49:02;;;;;;;18.27;5.30;;;;;;;;;;5110415;28;20060;-61
2022/03/22 01:51:31;;;;;;;9.27;5.23;;;;;;;;;;5113923;28;20047;-61
2022/03/22 01:53:57;;;;;;;8.23;5.10;;;;;;;;;;5104311;28;20024;-61
2022/03/22 01:56:22;;;;;;;7.77;5.03;;;;;;;;;;5100559;28;20097;-62
2022/03/22 01:58:47;;;;;;;7.80;5.27;;;;;;;;;;5113179;28;20082;-62
2022/03/22 02:06:44;;;;;;;6.87;5.27;;;;;;;;;;5095715;28;20054;-62
2022/03/22 02:09:10;;;;;;;7.23;4.90;;;;;;;;;;5108619;28;20479;-62
2022/03/22 02:11:35;;;;;;;8.97;5.17;;;;;;;;;;5110181;28;20066;-62
2022/03/22 02:14:00;;;;;;;7.50;5.50;;;;;;;;;;5115057;28;20035;-61
2022/03/22 02:16:25;;;;;;;6.90;5.23;;;;;;;;;;5112893;28;20023;-61
2022/03/22 02:18:51;;;;;;;8.27;5.03;;;;;;;;;;5103924;28;20055;-61
2022/03/22 02:21:18;;;;;;;6.70;4.93;;;;;;;;;;5103820;28;20473;-62
2022/03/22 02:23:53;;;;;;;6.83;4.40;;;;;;;;;;5111248;28;20028;-62
2022/03/22 02:26:18;;;;;;;;;;;;;;;;;;5110669;28;20020;-62
2022/03/22 02:28:44;;;;;;;9.45;4.95;;;;;;;;;;5114676;28;20356;-62
2022/03/22 02:31:09;;;;;;;8.27;5.33;;;;;;;;;;5112936;28;20039;-61
2022/03/22 02:33:34;;;;;;;6.33;4.90;;;;;;;;;;5108600;28;20126;-62
2022/03/22 02:36:00;;;;;;;7.53;5.20;;;;;;;;;;5109300;28;20130;-62
2022/03/22 02:38:25;;;;;;;8.10;4.87;;;;;;;;;;5114539;28;20388;-62
2022/03/22 02:40:50;;;;;;;7.33;5.47;;;;;;;;;;5113302;28;20492;-63
2022/03/22 02:43:16;;;;;;;8.50;5.10;;;;;;;;;;5112363;28;20356;-63
2022/03/22 02:45:41;;;;;;;7.70;4.70;;;;;;;;;;5113674;28;20388;-62
2022/03/22 02:48:07;;;;;;;9.90;5.10;;;;;;;;;;5113597;28;20107;-62
2022/03/22 02:50:32;;;;;;;7.50;4.73;;;;;;;;;;5099750;28;20112;-62
2022/03/22 02:52:57;;;;;;;6.83;5.23;;;;;;;;;;5097236;28;20115;-62
2022/03/22 02:55:22;;;;;;;7.80;5.93;;;;;;;;;;5104306;28;20032;-62
2022/03/22 02:57:48;;;;;;;7.83;5.27;;;;;;;;;;5102567;28;20028;-62
2022/03/22 03:00:14;;;;;;;10.03;6.27;;;;;;;;;;5104268;28;20036;-62
2022/03/22 03:02:43;;;;;;;9.90;6.37;;;;;;;;;;5101640;28;20042;-63
2022/03/22 03:05:08;;;;;;;7.50;5.83;;;;;;;;;;5108584;28;20020;-61
2022/03/22 03:07:34;;;;;;;8.43;5.27;;;;;;;;;;5097625;28;20392;-62
2022/03/22 03:09:59;;;;;;;8.30;5.40;;;;;;;;;;5112059;28;20026;-62
2022/03/22 03:12:24;;;;;;;7.03;4.87;;;;;;;;;;5112743;28;20043;-63
2022/03/22 03:14:49;;;;;;;7.07;4.90;;;;;;;;;;5097573;28;20099;-62
2022/03/22 03:17:15;;;;;;;7.43;4.97;;;;;;;;;;5103026;28;20494;-63
2022/03/22 03:19:41;;;;;;;8.90;5.10;;;;;;;;;;5093822;28;20015;-62
2022/03/22 03:22:08;;;;;;;10.47;4.77;;;;;;;;;;5094144;28;20036;-61
2022/03/22 03:24:33;;;;;;;8.20;5.63;;;;;;;;;;5108228;28;20020;-61
2022/03/22 03:26:59;;;;;;;7.77;5.07;;;;;;;;;;5106428;28;20011;-61
2022/03/22 03:29:24;;;;;;;6.93;4.77;;;;;;;;;;5110798;28;20028;-61
2022/03/22 03:31:49;;;;;;;9.47;5.27;;;;;;;;;;5112820;28;20069;-61
2022/03/22 03:34:15;;;;;;;7.27;4.80;;;;;;;;;;5109985;28;20110;-62
2022/03/22 03:36:41;;;;;;;8.17;5.03;;;;;;;;;;5113465;27;20024;-61
2022/03/22 03:39:06;;;;;;;6.20;4.87;;;;;;;;;;5101534;28;20375;-61
2022/03/22 03:47:07;;;;;;;5.30;4.63;;;;;;;;;;5093432;28;20391;-62
2022/03/22 03:49:40;;;;;;;10.33;5.50;;;;;;;;;;5102505;28;20031;-62
2022/03/22 03:52:07;;;;;;;8.30;5.27;;;;;;;;;;5090747;28;20393;-62
2022/03/22 03:54:32;;;;;;;9.20;5.57;;;;;;;;;;5096239;28;20322;-62
2022/03/22 03:56:57;;;;;;;8.40;5.60;;;;;;;;;;5108639;28;20473;-62
2022/03/22 03:59:23;;;;;;;6.13;4.90;;;;;;;;;;5106113;28;20447;-61
2022/03/22 04:01:48;;;;;;;6.33;5.10;;;;;;;;;;5113603;28;20027;-61
2022/03/22 04:04:13;;;;;;;6.53;5.20;;;;;;;;;;5098683;28;20081;-62
2022/03/22 04:06:38;;;;;;;7.83;4.73;;;;;;;;;;5111979;28;20039;-62
2022/03/22 04:09:03;;;;;;;9.87;5.93;;;;;;;;;;5109673;28;20027;-62
2022/03/22 04:11:29;;;;;;;7.90;5.30;;;;;;;;;;5097608;28;20016;-61
2022/03/22 04:13:54;;;;;;;8.90;5.60;;;;;;;;;;5097085;28;20028;-62
2022/03/22 04:16:19;;;;;;;8.03;5.00;;;;;;;;;;5100874;28;20019;-62
2022/03/22 04:18:44;;;;;;;9.90;4.83;;;;;;;;;;5110297;28;20027;-61
2022/03/22 04:21:11;;;;;;;10.00;5.80;;;;;;;;;;5102930;28;20035;-62
2022/03/22 04:23:36;;;;;;;6.50;4.90;;;;;;;;;;5111811;28;20031;-61
2022/03/22 04:26:02;;;;;;;8.90;5.00;;;;;;;;;;5105012;28;20495;-62
2022/03/22 04:33:56;;;;;;;6.70;4.93;;;;;;;;;;5111662;28;20084;-63
2022/03/22 04:36:21;;;;;;;9.33;5.50;;;;;;;;;;5098468;28;20028;-62
2022/03/22 04:38:46;;;;;;;7.83;5.40;;;;;;;;;;5102941;28;20039;-63
2022/03/22 04:41:11;;;;;;;8.03;5.93;;;;;;;;;;5109287;28;20054;-62
2022/03/22 04:43:37;;;;;;;8.37;5.63;;;;;;;;;;5103739;28;20476;-62
2022/03/22 04:46:02;;;;;;;8.73;5.73;;;;;;;;;;5095490;28;20024;-62
2022/03/22 04:48:28;;;;;;;11.03;6.23;;;;;;;;;;5094016;28;20039;-62
2022/03/22 04:56:43;;;;;;;8.50;6.17;;;;;;;;;;5095186;28;20113;-63
2022/03/22 04:59:06;;;;;;;10.23;5.87;;;;;;;;;;5106653;28;20399;-63
2022/03/22 05:01:31;;;;;;;8.17;5.53;;;;;;;;;;5098017;28;20028;-62
2022/03/22 05:03:56;;;;;;;8.87;5.67;;;;;;;;;;5094695;28;20054;-62
2022/03/22 05:06:28;;;;;;;10.77;5.97;;;;;;;;;;5109881;28;20032;-62
2022/03/22 05:08:54;;;;;;;13.93;6.23;;;;;;;;;;5110304;28;20024;-63
2022/03/22 05:11:20;;;;;;;9.10;5.87;;;;;;;;;;5110175;28;20022;-63
2022/03/22 05:13:45;;;;;;;8.23;5.47;;;;;;;;;;5080926;28;20201;-62
2022/03/22 05:16:10;;;;;;;6.97;4.97;;;;;;;;;;5093409;28;20051;-62
2022/03/22 05:18:36;;;;;;;9.23;5.40;;;;;;;;;;5092926;28;20028;-62
2022/03/22 05:21:04;;;;;;;8.80;5.27;;;;;;;;;;5092131;28;20488;-62
2022/03/22 05:23:29;;;;;;;7.67;5.60;;;;;;;;;;5095132;28;20492;-62
2022/03/22 05:25:54;;;;;;;8.50;5.37;;;;;;;;;;5096928;28;20062;-62
2022/03/22 05:28:19;;;;;;;8.23;5.00;;;;;;;;;;5109724;28;20032;-62
2022/03/22 05:30:45;;;;;;;9.90;5.50;;;;;;;;;;5108820;28;20123;-62
2022/03/22 05:33:10;;;;;;;7.97;5.30;;;;;;;;;;5101805;28;20047;-63
2022/03/22 05:35:35;;;;;;;7.73;5.17;;;;;;;;;;5094534;28;20024;-62
2022/03/22 05:38:00;;;;;;;10.93;5.20;;;;;;;;;;5094302;28;20025;-62
2022/03/22 05:40:25;;;;;;;9.40;6.03;;;;;;;;;;5101051;28;20050;-62
2022/03/22 05:42:51;;;;;;;10.13;5.43;;;;;;;;;;5093171;28;20043;-62
2022/03/22 05:45:17;;;;;;;7.57;5.17;;;;;;;;;;5099537;28;20032;-62
2022/03/22 05:47:42;;;;;;;9.77;5.77;;;;;;;;;;5100914;28;20768;-62
2022/03/22 05:50:08;;;;;;;8.60;5.77;;;;;;;;;;5109659;28;20024;-62
2022/03/22 05:52:33;;;;;;;9.00;5.40;;;;;;;;;;5107303;28;20495;-62
2022/03/22 05:54:59;;;;;;;9.43;5.90;;;;;;;;;;5096536;28;21231;-62
2022/03/22 05:57:24;;;;;;;7.80;5.53;;;;;;;;;;5107004;28;20052;-62
2022/03/22 05:59:49;;;;;;;14.17;5.63;;;;;;;;;;5109931;28;20036;-62
2022/03/22 06:02:14;;;;;;;9.23;5.73;;;;;;;;;;5107625;28;20039;-62
2022/03/22 06:04:40;;;;;;;9.30;6.03;;;;;;;;;;5094472;28;20045;-62
2022/03/22 06:07:05;;;;;;;10.50;6.10;;;;;;;;;;5105608;28;20035;-62
2022/03/22 06:09:31;;;;;;;9.83;6.17;;;;;;;;;;5092029;28;20369;-63
2022/03/22 06:11:56;;;;;;;7.67;5.47;;;;;;;;;;5101255;28;20452;-63
2022/03/22 06:14:21;;;;;;;7.87;6.00;;;;;;;;;;5110305;28;20035;-62
2022/03/22 06:16:46;;;;;;;9.77;6.33;;;;;;;;;;5097371;28;20469;-62
2022/03/22 06:19:11;;;;;;;10.20;6.63;;;;;;;;;;5100762;28;20043;-62
2022/03/22 06:21:36;;;;;;;8.43;5.40;;;;;;;;;;5097782;28;20027;-62
2022/03/22 06:24:02;;;;;;;9.30;5.87;;;;;;;;;;5105624;28;20020;-62
2022/03/22 06:26:27;;;;;;;7.13;5.70;;;;;;;;;;5105269;28;20084;-62
2022/03/22 06:28:52;;;;;;;10.73;6.37;;;;;;;;;;5103706;28;20456;-61
2022/03/22 06:31:18;;;;;;;9.87;6.10;;;;;;;;;;5099599;28;20588;-62
2022/03/22 06:33:43;;;;;;;8.93;5.17;;;;;;;;;;5097327;28;20066;-62
2022/03/22 06:36:08;;;;;;;9.23;6.07;;;;;;;;;;5096421;28;20038;-62
2022/03/22 06:38:34;;;;;;;7.93;5.77;;;;;;;;;;5096916;28;20110;-62
2022/03/22 06:40:59;;;;;;;8.07;5.30;;;;;;;;;;5099080;28;20372;-62
2022/03/22 06:43:25;;;;;;;7.63;5.53;;;;;;;;;;5105298;28;20093;-62
2022/03/22 06:45:50;;;;;;;7.00;4.97;;;;;;;;;;5101544;27;20065;-62
2022/03/22 06:48:18;;;;;;;7.80;5.00;;;;;;;;;;5101856;28;20031;-62
2022/03/22 06:50:44;;;;;;;7.30;5.10;;;;;;;;;;5100010;28;20122;-62
2022/03/22 06:53:10;;;;;;;8.10;4.93;;;;;;;;;;5109630;28;20135;-61
2022/03/22 06:55:35;;;;;;;6.90;5.00;;;;;;;;;;5106665;28;20060;-61
2022/03/22 06:58:01;;;;;;;7.17;5.07;;;;;;;;;;5109892;28;20075;-62
2022/03/22 07:00:31;;;;;;;7.37;4.80;;;;;;;;;;5102223;28;20353;-62
2022/03/22 07:02:56;;;;;;;8.40;5.00;;;;;;;;;;5096510;28;20028;-61
2022/03/22 07:05:21;;;;;;;5.93;4.53;;;;;;;;;;5097914;28;20035;-62
2022/03/22 07:07:47;;;;;;;7.82;4.13;;;;;;;;;;5098042;28;20031;-61
2022/03/22 07:10:13;;;;;;;7.97;4.70;;;;;;;;;;5099293;28;20036;-62
2022/03/22 07:12:51;;;;;;;5.32;4.45;;;;;;;;;;5094266;28;20044;-61
2022/03/22 07:15:16;;;;;;;7.03;4.22;;;;;;;;;;5101937;28;20031;-62
2022/03/22 07:17:41;;;;;;;6.07;4.47;;;;;;;;;;5097292;28;20028;-62
2022/03/22 07:20:07;;;;;;;6.20;4.63;;;;;;;;;;5104959;28;20028;-62
2022/03/22 07:22:32;;;;;;;5.65;4.70;;;;;;;;;;5112686;28;20114;-61
2022/03/22 07:24:58;;;;;;;6.93;4.40;;;;;;;;;;5110849;28;20147;-60
2022/03/22 07:27:23;;;;;;;5.75;4.28;;;;;;;;;;5106426;28;20020;-62
2022/03/22 07:29:50;;;;;;;6.55;4.47;;;;;;;;;;5103510;28;20020;-62
2022/03/22 07:32:16;;;;;;;8.60;4.50;;;;;;;;;;5107165;28;20031;-60
2022/03/22 07:34:41;;;;;;;7.07;4.80;;;;;;;;;;5108460;28;20016;-61
2022/03/22 07:37:07;;;;;;;5.68;4.05;;;;;;;;;;5108839;28;20114;-62
2022/03/22 07:39:34;;;;;;;5.43;3.50;;;;;;;;;;5111656;27;20503;-62
2022/03/22 07:42:00;;;;;;;4.97;4.00;;;;;;;;;;5111426;28;20030;-62
2022/03/22 07:44:27;;;;;;;5.93;4.03;;;;;;;;;;5113173;28;20106;-63
2022/03/22 07:46:52;;;;;;;5.68;3.78;;;;;;;;;;5112578;28;20099;-62
2022/03/22 07:54:46;;;;;;;9.15;3.80;;;;;;;;;;5113254;28;20160;-62
2022/03/22 07:57:11;;;;;;;4.78;3.50;;;;;;;;;;5109182;28;20528;-61
2022/03/22 07:59:37;;;;;;;5.60;4.15;;;;;;;;;;5109734;28;20062;-62
2022/03/22 08:02:02;;;;;;;4.68;3.88;;;;;;;;;;5094189;28;20116;-61
2022/03/22 08:04:28;;;;;;;5.68;3.65;;;;;;;;;;5106335;28;20164;-61
2022/03/22 08:06:53;;;;;;;5.70;3.67;;;;;;;;;;5106356;28;20028;-62
2022/03/22 08:09:18;;;;;;;4.53;3.75;;;;;;;;;;5104217;28;20020;-62
2022/03/22 08:11:44;;;;;;;4.85;3.47;;;;;;;;;;5104964;28;20402;-62
2022/03/22 08:14:09;;;;;;;4.45;3.50;;;;;;;;;;5108269;28;20054;-62
2022/03/22 08:16:36;;;;;;;4.80;3.50;;;;;;;;;;5111420;27;20027;-62
2022/03/22 08:19:04;;;;;;;6.38;3.70;;;;;;;;;;5112055;28;20108;-62
2022/03/22 08:21:29;;;;;;;6.95;4.07;;;;;;;;;;5108580;28;20026;-62
2022/03/22 08:23:54;;;;;;;6.32;3.47;;;;;;;;;;5112498;28;20020;-62
2022/03/22 08:26:20;;;;;;;4.15;3.53;;;;;;;;;;5103688;28;20043;-62
2022/03/22 08:28:45;;;;;;;5.20;3.53;;;;;;;;;;5111602;28;20035;-63
2022/03/22 08:31:13;;;;;;;6.45;3.15;;;;;;;;;;5109905;28;20065;-63
2022/03/22 08:33:38;;;;;;;5.63;3.53;;;;;;;;;;5103810;28;20023;-62
2022/03/22 08:36:04;;;;;;;5.65;3.97;;;;;;;;;;5112233;28;20112;-63
2022/03/22 08:38:29;;;;;;;6.63;4.03;;;;;;;;;;5103582;27;20050;-62
2022/03/22 08:40:56;;;;;;;6.15;4.20;;;;;;;;;;5108829;28;20015;-62
2022/03/22 08:43:22;;;;;;;4.50;4.00;;;;;;;;;;5102963;28;20032;-61
2022/03/22 08:45:47;;;;;;;7.13;4.30;;;;;;;;;;5102383;28;20081;-62
2022/03/22 08:48:12;;;;;;;6.07;4.22;;;;;;;;;;5097712;28;20030;-62
2022/03/22 08:50:45;;;;;;;5.78;4.10;;;;;;;;;;5100001;28;20028;-62
2022/03/22 08:53:11;;;;;;;6.10;4.20;;;;;;;;;;5096505;28;20031;-62
2022/03/22 08:55:36;;;;;;;4.28;3.67;;;;;;;;;;5097090;28;20084;-62
2022/03/22 08:58:05;;;;;;;6.90;4.18;;;;;;;;;;5107981;28;20047;-62
2022/03/22 09:00:31;;;;;;;6.05;4.10;;;;;;;;;;5102252;28;20062;-62
2022/03/22 09:02:56;;;;;;;5.13;4.35;;;;;;;;;;5111286;28;20058;-62
2022/03/22 09:08:06;;;;;;;4.50;3.92;;;;;;;;;;5107248;28;20088;-61
2022/03/22 09:10:32;;;;;;;7.20;4.18;;;;;;;;;;5105474;28;20028;-62
2022/03/22 09:12:57;;;;;;;5.10;4.20;;;;;;;;;;5097862;28;20015;-62
2022/03/22 09:15:24;;;;;;;26.27;6.10;;;;;;;;;;5112053;28;20020;-62
2022/03/22 09:17:49;;;;;;;7.43;3.80;;;;;;;;;;5111652;28;20412;-62
2022/03/22 09:20:15;;;;;;;4.45;3.55;;;;;;;;;;5110115;28;20480;-62
2022/03/22 09:22:42;;;;;;;11.27;3.58;;;;;;;;;;5097735;28;20345;-62
2022/03/22 09:25:08;;;;;;;4.60;4.13;;;;;;;;;;5094530;28;20100;-62
2022/03/22 09:27:33;;;;;;;6.15;3.97;;;;;;;;;;5104561;28;20135;-62
2022/03/22 09:29:58;;;;;;;6.57;4.30;;;;;;;;;;5111125;28;20015;-62
2022/03/22 09:32:23;;;;;;;5.40;3.63;;;;;;;;;;5103785;28;20030;-62
2022/03/22 09:34:49;;;;;;;5.50;3.38;;;;;;;;;;5111334;28;20024;-62
2022/03/22 09:37:16;;;;;;;4.55;3.63;;;;;;;;;;5107692;28;20387;-62
2022/03/22 09:39:42;;;;;;;4.05;3.17;;;;;;;;;;5102698;28;20012;-63
2022/03/22 09:42:07;;;;;;;3.70;3.40;;;;;;;;;;5097480;28;20403;-62
2022/03/22 09:44:33;;;;;;;4.75;3.65;;;;;;;;;;5106082;28;20472;-62
2022/03/22 09:46:58;;;;;;;5.03;3.70;;;;;;;;;;5091463;28;20112;-62
2022/03/22 09:49:24;;;;;;;5.90;3.88;;;;;;;;;;5098423;28;20066;-62
2022/03/22 09:51:49;;;;;;;5.95;3.70;;;;;;;;;;5097896;28;20028;-62
2022/03/22 09:54:16;;;;;;;4.03;3.50;;;;;;;;;;5110119;28;20368;-62
2022/03/22 09:56:42;;;;;;;4.82;3.65;;;;;;;;;;5108033;27;20043;-61
2022/03/22 09:59:08;;;;;;;6.32;3.95;;;;;;;;;;5108226;28;20122;-62
2022/03/22 10:01:33;;;;;;;5.53;3.53;;;;;;;;;;5097054;28;20067;-62
2022/03/22 10:04:05;;;;;;;5.30;3.28;;;;;;;;;;5111823;28;20035;-62
2022/03/22 10:06:30;;;;;;;6.05;3.75;;;;;;;;;;5109089;28;20027;-63
2022/03/22 10:08:55;;;;;;;7.82;3.72;;;;;;;;;;5105303;28;20032;-62
2022/03/22 10:11:21;;;;;;;5.30;3.30;;;;;;;;;;5106957;28;20035;-62
2022/03/22 10:13:53;;;;;;;4.55;3.25;;;;;;;;;;5104756;28;20028;-63
2022/03/22 10:16:18;;;;;;;5.13;3.58;;;;;;;;;;5112871;28;20036;-63
2022/03/22 10:18:44;;;;;;;4.57;3.17;;;;;;;;;;5106810;28;20019;-63
2022/03/22 10:21:09;;;;;;;4.18;3.38;;;;;;;;;;5107842;28;20034;-63
2022/03/22 10:23:46;;;;;;;4.38;3.97;;;;;;;;;;5097005;28;20024;-63
2022/03/22 10:26:11;;;;;;;3.97;3.58;;;;;;;;;;5106346;28;20028;-63
2022/03/22 10:28:47;;;;;;;4.88;3.25;;;;;;;;;;5095059;28;20032;-63
2022/03/22 10:31:12;;;;;;;5.18;3.22;;;;;;;;;;5099876;28;20456;-63
2022/03/22 10:33:47;;;;;;;4.25;3.55;;;;;;;;;;5109149;28;20085;-63
2022/03/22 10:36:14;;;;;;;4.50;3.38;;;;;;;;;;5101395;28;20016;-63
2022/03/22 10:38:39;;;;;;;3.85;3.30;;;;;;;;;;5104568;28;20028;-63
2022/03/22 10:41:05;;;;;;;4.03;3.63;;;;;;;;;;5100568;28;20047;-63
2022/03/22 10:43:32;;;;;;;4.70;3.92;;;;;;;;;;5104110;28;20022;-63
2022/03/22 10:46:01;;;;;;;7.05;3.97;;;;;;;;;;5102131;28;20024;-63
2022/03/22 10:48:32;;;;;;;5.57;4.00;;;;;;;;;;5107238;28;20051;-63
2022/03/22 10:50:59;;;;;;;4.22;3.85;;;;;;;;;;5100377;28;20145;-63
2022/03/22 10:53:25;;;;;;;4.18;3.80;;;;;;;;;;5099156;28;20020;-63
2022/03/22 10:55:51;;;;;;;4.63;3.42;;;;;;;;;;5094957;28;20030;-63
2022/03/22 10:58:20;;;;;;;4.70;4.13;;;;;;;;;;5110663;28;20031;-63
2022/03/22 11:00:46;;;;;;;4.22;3.83;;;;;;;;;;5104070;28;20020;-63
2022/03/22 11:03:12;;;;;;;4.18;3.78;;;;;;;;;;5103262;28;20368;-64
2022/03/22 11:05:39;;;;;;;4.57;3.70;;;;;;;;;;5100396;28;20039;-63
2022/03/22 11:08:05;;;;;;;4.55;3.30;;;;;;;;;;5103434;28;20440;-63
2022/03/22 11:10:30;;;;;;;7.22;4.40;;;;;;;;;;5112293;28;20020;-63
2022/03/22 11:12:58;;;;;;;4.15;3.63;;;;;;;;;;5098092;28;20111;-63
2022/03/22 11:15:23;;;;;;;4.60;3.33;;;;;;;;;;5113100;28;20089;-63
2022/03/22 11:17:51;;;;;;;4.28;3.47;;;;;;;;;;5107493;28;20448;-64
2022/03/22 11:20:17;;;;;;;5.60;3.78;;;;;;;;;;5108155;28;20060;-63
2022/03/22 11:22:48;;;;;;;4.40;3.45;;;;;;;;;;5102028;28;20020;-63
2022/03/22 11:25:16;;;;;;;4.10;3.70;;;;;;;;;;5105775;28;20433;-64
2022/03/22 11:27:41;;;;;;;5.15;3.97;;;;;;;;;;5106308;28;20022;-62
2022/03/22 11:30:07;;;;;;;5.63;3.70;;;;;;;;;;5103111;28;20093;-63
2022/03/22 11:35:17;;;;;;;3.97;3.35;;;;;;;;;;5110059;28;20434;-64
2022/03/22 11:37:53;;;;;;;4.93;3.40;;;;;;;;;;5113489;28;20090;-63
2022/03/22 11:43:08;;;;;;;7.25;3.50;;;;;;;;;;5094455;28;20027;-64
2022/03/22 11:45:34;;;;;;;2.70;2.50;;;;;;;;;;5104662;28;20077;-64
2022/03/22 11:48:07;;;;;;;2.85;2.65;;;;;;;;;;5100034;28;20321;-64
2022/03/22 11:50:32;;;;;;;5.00;3.10;;;;;;;;;;5104800;28;20016;-64
2022/03/22 11:53:01;;;;;;;4.10;2.67;;;;;;;;;;5098301;28;20163;-64
2022/03/22 11:55:26;;;;;;;2.92;2.63;;;;;;;;;;5094996;28;20054;-64
2022/03/22 11:57:53;;;;;;;2.80;2.60;;;;;;;;;;5099510;28;20466;-64
2022/03/22 12:00:42;;;;;;;2.60;2.38;;;;;;;;;;5101317;28;20066;-64
2022/03/22 12:03:11;;;;;;;2.42;2.05;;;;;;;;;;5087966;28;20036;-64
2022/03/22 12:05:36;;;;;;;3.30;2.22;;;;;;;;;;5096962;28;20140;-64
2022/03/22 12:08:14;;;;;;;2.75;2.00;;;;;;;;;;5097272;28;20422;-63
2022/03/22 12:10:40;;;;;;;5.25;2.40;;;;;;;;;;5110209;28;20023;-63
2022/03/22 12:13:05;;;;;;;1.95;1.85;;;;;;;;;;5096334;28;20099;-63
2022/03/22 12:15:30;;;;;;;2.28;2.08;;;;;;;;;;5097812;28;20716;-63
2022/03/22 12:17:56;;;;;;;3.38;2.20;;;;;;;;;;5097887;28;20055;-64
2022/03/22 12:20:23;;;;;;;4.68;2.20;;;;;;;;;;5097334;28;20525;-64
2022/03/22 12:22:52;;;;;;;2.35;2.15;;;;;;;;;;5096472;28;20396;-63
2022/03/22 12:25:19;;;;;;;2.60;2.40;;;;;;;;;;5094224;28;20449;-63
2022/03/22 12:27:53;;;;;;;2.63;2.42;;;;;;;;;;5097041;28;20096;-63
2022/03/22 12:30:20;;;;;;;2.20;2.03;;;;;;;;;;5096347;28;20042;-63
2022/03/22 12:32:45;;;;;;;4.10;2.60;;;;;;;;;;5098838;28;20484;-64
2022/03/22 12:35:11;;;;;;;2.75;2.55;;;;;;;;;;5096880;28;20023;-64
2022/03/22 12:37:36;;;;;;;2.95;2.63;;;;;;;;;;5100123;28;20147;-64
2022/03/22 12:40:02;;;;;;;2.73;2.60;;;;;;;;;;5094128;28;20027;-65
2022/03/22 12:42:29;;;;;;;3.25;2.78;;;;;;;;;;5098419;28;20035;-65
2022/03/22 12:44:55;;;;;;;5.70;2.75;;;;;;;;;;5097308;28;20055;-64
2022/03/22 12:47:21;;;;;;;2.80;2.60;;;;;;;;;;5111123;28;20051;-64
2022/03/22 12:49:48;;;;;;;3.70;3.28;;;;;;;;;;5093230;28;20020;-64
2022/03/22 12:52:13;;;;;;;3.72;2.83;;;;;;;;;;5102121;28;20026;-64
2022/03/22 12:54:40;;;;;;;4.05;3.10;;;;;;;;;;5103190;28;21355;-64
2022/03/22 12:57:10;;;;;;;3.55;3.08;;;;;;;;;;5101412;27;20167;-64
2022/03/22 12:59:36;;;;;;;3.22;3.03;;;;;;;;;;5105532;28;20020;-64
2022/03/22 13:02:06;;;;;;;3.17;2.70;;;;;;;;;;5100057;28;20016;-64
2022/03/22 13:04:33;;;;;;;3.85;3.17;;;;;;;;;;5110847;28;20081;-64
2022/03/22 13:07:00;;;;;;;6.13;3.08;;;;;;;;;;5110390;28;20054;-64
2022/03/22 13:12:11;;;;;;;4.10;2.92;;;;;;;;;;5096076;28;20389;-64
2022/03/22 13:17:21;;;;;;;6.88;3.60;;;;;;;;;;5098591;28;20035;-64
2022/03/22 13:19:46;;;;;;;3.95;2.70;;;;;;;;;;5096427;28;20015;-63
2022/03/22 13:22:18;;;;;;;3.33;3.10;;;;;;;;;;5095959;28;20396;-63
2022/03/22 13:24:44;;;;;;;5.03;3.03;;;;;;;;;;5101418;28;20028;-63
2022/03/22 13:27:10;;;;;;;3.67;3.23;;;;;;;;;;5098432;28;20031;-63
2022/03/22 13:29:38;;;;;;;4.70;3.65;;;;;;;;;;5100018;28;20278;-63
2022/03/22 13:32:04;;;;;;;6.10;3.70;;;;;;;;;;5100096;28;20028;-63
2022/03/22 13:34:32;;;;;;;9.30;4.10;;;;;;;;;;5100881;28;20020;-63
2022/03/22 13:37:05;;;;;;;5.20;3.85;;;;;;;;;;5124174;27;20400;-63
2022/03/22 13:39:30;;;;;;;4.35;3.78;;;;;;;;;;5099362;28;20539;-64
2022/03/22 13:42:07;;;;;;;4.20;3.90;;;;;;;;;;5101816;28;20027;-64
2022/03/22 13:44:32;;;;;;;6.70;4.15;;;;;;;;;;5100998;28;20510;-64
2022/03/22 13:46:59;;;;;;;4.73;4.33;;;;;;;;;;5100319;28;21127;-64
2022/03/22 13:49:34;;;;;;;4.88;4.45;;;;;;;;;;5101215;28;20119;-64
2022/03/22 13:51:59;;;;;;;5.40;4.90;;;;;;;;;;5100229;28;20487;-64
2022/03/22 13:54:25;;;;;;;5.53;5.10;;;;;;;;;;5099499;28;20281;-64
2022/03/22 13:56:50;;;;;;;5.43;4.93;;;;;;;;;;5099257;28;20098;-64
2022/03/22 13:59:15;;;;;;;5.50;5.00;;;;;;;;;;5100576;28;20028;-64
2022/03/22 14:01:40;;;;;;;5.70;5.10;;;;;;;;;;5100993;28;20326;-63
2022/03/22 14:04:06;;;;;;;6.17;5.57;;;;;;;;;;5096744;28;20028;-63
2022/03/22 14:06:31;;;;;;;6.43;5.82;;;;;;;;;;5099581;28;20829;-64
2022/03/22 14:08:56;;;;;;;6.43;5.80;;;;;;;;;;5097216;28;20134;-64
2022/03/22 14:11:22;;;;;;;6.63;5.97;;;;;;;;;;5098208;28;20412;-63
2022/03/22 14:13:47;;;;;;;7.13;6.45;;;;;;;;;;5098888;28;20016;-64
2022/03/22 14:16:13;;;;;;;6.87;6.23;;;;;;;;;;5098845;28;20024;-64
2022/03/22 14:18:39;;;;;;;9.90;6.78;;;;;;;;;;5097713;28;20276;-64
2022/03/22 14:21:04;;;;;;;7.65;6.90;;;;;;;;;;5100810;28;20090;-64
2022/03/22 14:23:30;;;;;;;7.13;6.43;;;;;;;;;;5100087;28;20736;-65
2022/03/22 14:25:56;;;;;;;7.25;6.55;;;;;;;;;;5097459;28;20305;-64
2022/03/22 14:28:25;;;;;;;7.65;6.80;;;;;;;;;;5097957;28;20085;-64
2022/03/22 14:30:53;;;;;;;7.20;6.50;;;;;;;;;;5099540;28;20050;-63
2022/03/22 14:33:18;;;;;;;7.32;6.68;;;;;;;;;;5098504;28;20031;-65
2022/03/22 14:35:46;;;;;;;7.32;6.68;;;;;;;;;;5098745;28;20442;-64
2022/03/22 14:38:12;;;;;;;7.63;6.78;;;;;;;;;;5100251;28;20049;-64
2022/03/22 14:40:39;;;;;;;7.15;6.53;;;;;;;;;;5106024;28;20020;-64
2022/03/22 14:43:06;;;;;;;7.20;5.90;;;;;;;;;;5105027;28;20011;-64
2022/03/22 14:45:32;;;;;;;7.32;6.70;;;;;;;;;;5107486;28;20511;-65
2022/03/22 14:47:57;;;;;;;7.47;6.78;;;;;;;;;;5111703;28;20032;-65
2022/03/22 14:50:23;;;;;;;7.38;6.63;;;;;;;;;;5113134;28;20506;-65
2022/03/22 14:55:33;;;;;;;8.23;7.40;;;;;;;;;;5110531;28;20088;-65
2022/03/22 15:00:42;;;;;;;7.30;6.63;;;;;;;;;;5107870;28;20062;-65
2022/03/22 15:03:10;;;;;;;7.38;6.68;;;;;;;;;;5099279;28;20285;-64
2022/03/22 15:05:41;;;;;;;7.70;7.00;;;;;;;;;;5110947;28;20020;-64
2022/03/22 15:08:09;;;;;;;8.05;7.25;;;;;;;;;;5097331;28;20079;-64
2022/03/22 15:10:34;;;;;;;7.90;7.13;;;;;;;;;;5105497;28;20019;-64
2022/03/22 15:12:59;;;;;;;7.78;6.97;;;;;;;;;;5109897;28;20036;-64
2022/03/22 15:15:26;;;;;;;23.83;22.33;;;;;;;;;;5108020;27;20047;-64
2022/03/22 15:17:51;;;;;;;11.70;10.73;;;;;;;;;;5110045;28;20497;-64
2022/03/22 15:20:16;;;;;;;9.18;8.27;;;;;;;;;;5110151;28;20047;-64
2022/03/22 15:22:41;;;;;;;8.38;7.30;;;;;;;;;;5105152;28;20020;-64
2022/03/22 15:25:07;;;;;;;7.70;7.00;;;;;;;;;;5102657;28;20591;-64